Elk City, OK (73644)

12:39 PM CST on February 25, 2017 (GMT -0600)
Clinton-Sherman | | Change Station

Elev 1919 ft 35.34 °N, 99.20 °W | Updated 46 minutes ago

Clear
Clear
37 °F
Feels Like 32 °F
N
6
Wind Variable Wind from South

Today
High -- | Low -- °F
--% Chance of Precip.
Yesterday
High -- | Low -- °F
Precip. -- in
Pressure 30.27 in
Visibility 10.0 miles
Clouds Clear
Windchill 32 °F
Dew Point 12 °F
Humidity 36%
Rainfall 0.00 in
Snow Depth Not available.
7:12 AM 6:29 PM
Waning Crescent, 1% visible
METAR KCSM 251753Z AUTO 17005KT 10SM CLR 03/M11 A3023 RMK AO2 SLP248 T00281111 10028 21067 58007
Pressure 30.27 in
Visibility 10.0 miles
Clouds Clear
Windchill 32 °F
Dew Point 12 °F
Humidity 36%
Rainfall 0.00 in
Snow Depth Not available.
7:12 AM 6:29 PM
Waning Crescent, 1% visible
METAR KCSM 251753Z AUTO 17005KT 10SM CLR 03/M11 A3023 RMK AO2 SLP248 T00281111 10028 21067 58007

Get Your Daily Forecast Email!

Thanks for signing up!

Be on the lookout for a verification email in your inbox.

You'll start receiving the daily forecast at 8 AM.

×

10-Day Weather Forecast

Almanac

Astronomy

Feb. 25, 2017 Rise Set
Actual Time
Civil Twilight
Nautical Twilight
Astronomical Twilight
Moon
Length of Visible Light
Length of Day
Tomorrow will be .
, % of the Moon is Illuminated

Today's Extremes

State Highs State Lows

Community

WunderPhotos

Upload Photos

1,962,540 photos uploaded!

WunderBlog® & News

Nearby

Air Quality

  Air Quality AQ Index Pollutant
Not available.

Snow Depth

Station Depth Elevation

Earthquake Activity

City Distance Mag. Time & Date
Minimum magnitude displayed is 2.5.

Coastal Water Temperatures

Place Temperature

Stations

Nearby Weather Stations

Station Location Temp. Windchill Dew Point Humidity Wind Precip. Elev Updated Type
                   

Watches & Warnings

There are currently no watches in effect.